Time;durP1;ratioP1;P1;durP2;ratioP2;P2;SDS_P1;SDS_P2;PMS_P1;PMS_P2;Temp;Humidity;BMP_temperature;BMP_pressure;BME280_temperature;BME280_humidity;BME280_pressure;Samples;Min_cycle;Max_cycle;Signal;HPM_P1;HPM_P2
2023/12/15 05:01:34;;;;;;;2.50;2.33;;;2.00;97.30;;;;;;5587191;23;20546;-86
2023/12/15 05:04:01;;;;;;;1.87;1.77;;;1.90;97.30;;;;;;5003573;28;20445;-85
2023/12/15 05:06:27;;;;;;;4.77;1.83;;;1.90;97.30;;;;;;4993124;28;20197;-85
2023/12/15 05:08:53;;;;;;;8.10;4.33;;;1.90;97.30;;;;;;4993167;28;20526;-85
2023/12/15 05:11:19;;;;;;;2.13;1.97;;;1.80;97.30;;;;;;4985423;28;20213;-85
2023/12/15 05:13:45;;;;;;;1.37;1.27;;;1.80;97.30;;;;;;4972981;28;20329;-85
2023/12/15 05:16:11;;;;;;;2.60;2.40;;;1.70;97.30;;;;;;4958521;28;20442;-83
2023/12/15 05:18:36;;;;;;;3.00;2.80;;;1.70;97.30;;;;;;4974872;28;20268;-84
2023/12/15 05:21:03;;;;;;;6.53;4.70;;;1.60;97.30;;;;;;4957566;28;20445;-85
2023/12/15 05:23:29;;;;;;;4.43;1.77;;;1.50;97.30;;;;;;4975256;28;20186;-85
2023/12/15 05:25:54;;;;;;;2.03;1.90;;;1.50;97.30;;;;;;4957888;28;20444;-84
2023/12/15 05:28:20;;;;;;;2.27;2.07;;;1.50;97.30;;;;;;4973255;28;20214;-84
2023/12/15 05:30:45;;;;;;;6.47;1.90;;;1.50;97.30;;;;;;4960725;28;20256;-84
2023/12/15 05:33:11;;;;;;;3.73;2.43;;;1.60;97.30;;;;;;4958421;28;20191;-84
2023/12/15 05:35:37;;;;;;;2.33;1.80;;;1.60;97.30;;;;;;4977913;28;20182;-85
2023/12/15 05:38:03;;;;;;;2.93;2.60;;;1.60;97.30;;;;;;4957079;28;20190;-86
2023/12/15 05:40:29;;;;;;;1.97;1.83;;;1.60;97.30;;;;;;4972698;28;20515;-85
2023/12/15 05:42:55;;;;;;;1.47;1.33;;;1.60;97.30;;;;;;4976258;28;20422;-85
2023/12/15 05:45:20;;;;;;;6.30;3.73;;;1.50;97.30;;;;;;4974991;28;20433;-85
2023/12/15 05:47:47;;;;;;;3.40;3.20;;;1.50;97.30;;;;;;4974333;28;20206;-84
2023/12/15 05:50:13;;;;;;;11.47;5.10;;;1.40;97.30;;;;;;4975074;28;20182;-82
2023/12/15 05:52:39;;;;;;;3.53;3.17;;;1.30;97.30;;;;;;4974607;28;20473;-85
2023/12/15 05:55:05;;;;;;;4.50;2.87;;;1.30;97.30;;;;;;4957734;28;20179;-83
2023/12/15 05:57:30;;;;;;;2.83;2.50;;;1.30;97.30;;;;;;4957875;28;20198;-85
2023/12/15 05:59:56;;;;;;;2.00;1.87;;;1.40;97.30;;;;;;4960558;28;20430;-82
2023/12/15 06:02:22;;;;;;;2.50;2.30;;;1.40;97.30;;;;;;4973108;28;20244;-86
2023/12/15 06:04:47;;;;;;;2.07;1.93;;;1.30;97.30;;;;;;4957445;28;20252;-82
2023/12/15 06:07:15;;;;;;;2.77;2.43;;;1.30;97.30;;;;;;4977024;28;20209;-82
2023/12/15 06:09:41;;;;;;;1.30;1.20;;;1.20;97.30;;;;;;4977833;28;20174;-82
2023/12/15 06:12:07;;;;;;;2.90;2.17;;;1.20;97.30;;;;;;4958144;28;20536;-85
2023/12/15 06:14:35;;;;;;;4.97;3.40;;;1.00;97.30;;;;;;4978580;28;20449;-84
2023/12/15 06:17:00;;;;;;;2.17;2.00;;;0.90;97.30;;;;;;4979163;28;20715;-87
2023/12/15 06:19:26;;;;;;;4.00;2.13;;;0.90;97.30;;;;;;4982113;28;20457;-82
2023/12/15 06:21:51;;;;;;;3.57;2.47;;;0.80;97.30;;;;;;4985951;28;20210;-84
2023/12/15 06:24:17;;;;;;;4.00;1.83;;;0.80;97.30;;;;;;4967065;28;20233;-86
2023/12/15 06:26:42;;;;;;;2.93;2.17;;;0.80;97.30;;;;;;4983390;28;20206;-86
2023/12/15 06:29:08;;;;;;;1.27;1.10;;;0.80;97.30;;;;;;4966967;28;20704;-85
2023/12/15 06:31:33;;;;;;;9.00;4.10;;;0.80;97.30;;;;;;4992535;28;20207;-87
2023/12/15 06:33:59;;;;;;;4.43;3.03;;;0.70;97.30;;;;;;4966742;28;20577;-86
2023/12/15 06:36:26;;;;;;;2.07;1.93;;;0.80;97.30;;;;;;4982695;28;20174;-86
2023/12/15 06:38:51;;;;;;;1.93;1.83;;;0.80;97.30;;;;;;4965915;28;20191;-87
2023/12/15 06:41:17;;;;;;;12.20;4.20;;;0.90;97.30;;;;;;4992664;28;20476;-86
2023/12/15 06:43:44;;;;;;;11.43;3.80;;;0.90;97.30;;;;;;4966626;28;20194;-86
2023/12/15 06:46:10;;;;;;;2.37;2.17;;;0.90;97.30;;;;;;4959998;28;20443;-87
2023/12/15 06:48:36;;;;;;;1.20;1.10;;;1.00;97.30;;;;;;4978408;28;20473;-84
2023/12/15 06:51:01;;;;;;;2.20;2.00;;;1.00;97.30;;;;;;4959008;28;20499;-86
2023/12/15 06:53:27;;;;;;;5.27;2.07;;;0.90;97.30;;;;;;4978265;28;20217;-86
2023/12/15 06:55:53;;;;;;;12.93;3.10;;;0.90;97.30;;;;;;4979630;28;20186;-86
2023/12/15 06:58:19;;;;;;;1.90;1.77;;;0.90;97.30;;;;;;4974451;28;20194;-87
2023/12/15 07:00:44;;;;;;;2.57;2.37;;;0.80;97.30;;;;;;4957598;28;20217;-86
2023/12/15 07:03:10;;;;;;;2.80;2.60;;;0.90;97.30;;;;;;4958162;28;21136;-85
2023/12/15 07:05:35;;;;;;;2.80;2.60;;;0.90;97.30;;;;;;4973206;28;20187;-87
2023/12/15 07:08:02;;;;;;;0.90;0.80;;;0.90;97.30;;;;;;4958074;28;20261;-86
2023/12/15 07:10:27;;;;;;;1.80;1.70;;;0.90;97.30;;;;;;4958573;28;20552;-87
2023/12/15 07:12:52;;;;;;;1.73;1.63;;;0.90;97.30;;;;;;4958303;28;20485;-86
2023/12/15 07:15:18;;;;;;;4.23;2.47;;;0.80;97.30;;;;;;4974605;28;20174;-87
2023/12/15 07:17:45;;;;;;;2.37;2.17;;;0.80;97.30;;;;;;4958393;28;20265;-87
2023/12/15 07:20:10;;;;;;;1.80;1.70;;;0.90;97.30;;;;;;4958622;28;20256;-86
2023/12/15 07:22:36;;;;;;;1.40;1.30;;;0.90;97.30;;;;;;4974141;28;20971;-87
2023/12/15 07:25:01;;;;;;;3.20;3.00;;;0.90;97.30;;;;;;4972980;28;20190;-86
2023/12/15 07:27:27;;;;;;;2.53;2.33;;;0.90;97.30;;;;;;4958314;28;20614;-86
2023/12/15 07:29:52;;;;;;;4.23;2.70;;;1.00;97.30;;;;;;4959062;28;20264;-85
2023/12/15 07:32:18;;;;;;;1.50;1.40;;;1.10;97.30;;;;;;4975195;28;20711;-87
2023/12/15 07:34:44;;;;;;;4.20;3.20;;;1.20;97.30;;;;;;4958636;28;20212;-86
2023/12/15 07:37:09;;;;;;;18.70;2.93;;;1.20;97.30;;;;;;4974850;28;20434;-86
2023/12/15 07:39:35;;;;;;;5.00;2.47;;;1.30;97.30;;;;;;4974967;28;20193;-86
2023/12/15 07:42:01;;;;;;;12.30;2.43;;;1.30;97.30;;;;;;4958246;28;20206;-86
2023/12/15 07:44:26;;;;;;;7.07;2.57;;;1.30;97.30;;;;;;4974587;28;20225;-86
2023/12/15 07:46:54;;;;;;;3.03;2.83;;;1.40;97.30;;;;;;4975559;28;20194;-86
2023/12/15 07:49:20;;;;;;;2.70;1.67;;;1.40;97.30;;;;;;4974852;28;20278;-86
2023/12/15 07:51:46;;;;;;;5.60;2.20;;;1.50;97.30;;;;;;4958150;28;20477;-87
2023/12/15 07:54:11;;;;;;;1.30;1.20;;;1.50;97.30;;;;;;4959042;28;20325;-85
2023/12/15 07:56:37;;;;;;;1.90;1.80;;;1.60;97.30;;;;;;4958464;28;20222;-86
2023/12/15 07:59:02;;;;;;;2.30;2.10;;;1.70;97.30;;;;;;4958379;28;20609;-85
2023/12/15 08:01:28;;;;;;;2.00;1.87;;;1.70;97.30;;;;;;4975128;28;20300;-86
2023/12/15 08:03:53;;;;;;;8.80;3.47;;;1.80;97.30;;;;;;4976235;28;20221;-86
2023/12/15 08:06:19;;;;;;;2.40;2.20;;;1.80;97.30;;;;;;4973717;28;20517;-86
2023/12/15 08:08:46;;;;;;;11.40;3.57;;;1.90;97.30;;;;;;4957823;28;20289;-87
2023/12/15 08:11:13;;;;;;;9.80;3.53;;;1.90;97.30;;;;;;4957659;28;20500;-86
2023/12/15 08:13:39;;;;;;;2.73;2.53;;;1.90;97.30;;;;;;4973903;28;20445;-87
2023/12/15 08:16:06;;;;;;;2.40;1.93;;;2.00;97.30;;;;;;4957916;28;20430;-87
2023/12/15 08:18:32;;;;;;;6.77;3.90;;;2.00;97.30;;;;;;4973991;28;20437;-86
2023/12/15 08:20:58;;;;;;;2.90;2.23;;;2.00;97.30;;;;;;4975072;28;20438;-87
2023/12/15 08:23:24;;;;;;;3.07;2.83;;;2.10;97.30;;;;;;4956909;28;20426;-86
2023/12/15 08:25:50;;;;;;;1.27;1.17;;;2.10;97.30;;;;;;4972593;28;20513;-87
2023/12/15 08:28:15;;;;;;;1.73;1.63;;;2.20;97.30;;;;;;4974815;28;20450;-87
2023/12/15 08:30:41;;;;;;;2.63;2.43;;;2.20;97.30;;;;;;4974518;28;20199;-87
2023/12/15 08:33:07;;;;;;;5.93;3.57;;;2.20;97.30;;;;;;4957306;28;20186;-87
2023/12/15 08:35:32;;;;;;;1.73;1.43;;;2.30;97.30;;;;;;4973101;28;20186;-87
2023/12/15 08:37:58;;;;;;;5.40;2.10;;;2.40;97.30;;;;;;4973181;28;20253;-87
2023/12/15 08:40:24;;;;;;;3.10;2.97;;;2.40;97.30;;;;;;4957527;28;20182;-87
2023/12/15 08:42:50;;;;;;;2.60;1.53;;;2.50;97.30;;;;;;4957480;28;20453;-86
2023/12/15 08:45:16;;;;;;;2.87;2.67;;;2.50;97.30;;;;;;4957553;28;20859;-87
2023/12/15 08:47:42;;;;;;;3.07;2.40;;;2.60;97.30;;;;;;4957296;28;20238;-86
2023/12/15 08:50:07;;;;;;;3.73;3.53;;;2.60;97.30;;;;;;4973610;28;20462;-86
2023/12/15 08:52:33;;;;;;;1.40;1.30;;;2.70;97.30;;;;;;4974309;28;20282;-87
2023/12/15 08:54:59;;;;;;;3.40;3.20;;;2.70;97.30;;;;;;4974846;28;20615;-87
2023/12/15 08:57:24;;;;;;;1.40;1.30;;;2.80;97.30;;;;;;4972787;28;20186;-87
2023/12/15 08:59:51;;;;;;;3.20;1.97;;;2.90;97.30;;;;;;4974740;28;20269;-87
2023/12/15 09:02:16;;;;;;;4.40;4.10;;;2.90;97.30;;;;;;4956745;28;20741;-87
2023/12/15 09:04:42;;;;;;;6.00;2.23;;;3.00;97.30;;;;;;4957166;28;20432;-87
2023/12/15 09:07:07;;;;;;;16.73;5.13;;;3.00;97.30;;;;;;4955090;28;20206;-87
2023/12/15 09:09:37;;;;;;;1.33;1.23;;;3.00;97.30;;;;;;4974613;28;20629;-88
2023/12/15 09:12:03;;;;;;;5.50;2.07;;;3.10;97.30;;;;;;4972929;28;20198;-88
2023/12/15 09:14:30;;;;;;;2.70;2.50;;;3.10;97.30;;;;;;4973223;28;20425;-87
2023/12/15 09:16:56;;;;;;;5.77;2.00;;;3.10;97.30;;;;;;4973140;28;20480;-88
2023/12/15 09:19:24;;;;;;;2.70;2.50;;;3.20;97.30;;;;;;4957040;28;20430;-87
2023/12/15 09:21:50;;;;;;;4.47;4.17;;;3.20;97.30;;;;;;4973050;28;20443;-88
2023/12/15 09:24:17;;;;;;;3.30;3.10;;;3.20;97.30;;;;;;4974354;28;20438;-86
2023/12/15 09:26:43;;;;;;;2.93;2.73;;;3.30;97.30;;;;;;4974136;28;20178;-87
2023/12/15 09:29:09;;;;;;;1.47;1.43;;;3.30;97.30;;;;;;4974278;28;20461;-86
2023/12/15 09:31:35;;;;;;;4.60;3.10;;;3.30;97.30;;;;;;4983201;28;20445;-87
2023/12/15 09:34:01;;;;;;;4.00;2.67;;;3.40;97.30;;;;;;4978912;28;20206;-87
2023/12/15 09:36:26;;;;;;;14.70;2.80;;;3.40;97.30;;;;;;4978851;28;20485;-88
2023/12/15 09:38:53;;;;;;;3.97;3.43;;;3.50;97.30;;;;;;4973681;28;20189;-88
2023/12/15 09:41:19;;;;;;;2.70;2.50;;;3.50;97.30;;;;;;4956722;28;20207;-88
2023/12/15 09:43:44;;;;;;;3.83;2.80;;;3.60;97.30;;;;;;4957641;28;20572;-87
2023/12/15 09:46:11;;;;;;;10.13;2.80;;;3.60;97.30;;;;;;4957693;28;20430;-88
2023/12/15 09:48:36;;;;;;;3.50;2.93;;;3.60;97.30;;;;;;4977177;28;20210;-87
2023/12/15 09:51:06;;;;;;;10.73;2.13;;;3.60;97.30;;;;;;4961221;28;20819;-87
2023/12/15 09:53:35;;;;;;;2.73;2.40;;;3.60;97.30;;;;;;4976956;28;20187;-88
2023/12/15 09:56:01;;;;;;;5.27;2.20;;;3.60;97.30;;;;;;4961661;28;20429;-88
2023/12/15 09:58:27;;;;;;;2.90;2.70;;;3.70;97.30;;;;;;4960412;28;20456;-88
2023/12/15 10:00:52;;;;;;;2.43;1.63;;;3.70;97.30;;;;;;4978698;28;20237;-88
2023/12/15 10:03:18;;;;;;;3.07;2.90;;;3.70;97.30;;;;;;4960630;28;20194;-88
2023/12/15 10:05:43;;;;;;;6.00;2.70;;;3.70;97.30;;;;;;4961277;28;20293;-88
2023/12/15 10:08:09;;;;;;;6.73;3.23;;;3.70;97.30;;;;;;4976956;28;20218;-87
2023/12/15 10:10:35;;;;;;;5.07;2.93;;;3.70;97.30;;;;;;4976580;28;20193;-88
2023/12/15 10:13:01;;;;;;;5.93;2.80;;;3.80;97.30;;;;;;4977641;28;20285;-87
2023/12/15 10:15:27;;;;;;;2.50;1.60;;;3.80;97.30;;;;;;4961198;28;20186;-88
2023/12/15 10:17:53;;;;;;;2.70;2.50;;;3.80;97.30;;;;;;4978478;28;20521;-88
2023/12/15 10:20:19;;;;;;;3.63;3.43;;;3.80;97.30;;;;;;4960766;28;20449;-88
2023/12/15 10:22:46;;;;;;;1.77;1.63;;;3.80;97.30;;;;;;4960523;28;20453;-88
2023/12/15 10:25:21;;;;;;;1.80;1.70;;;3.80;97.30;;;;;;4960211;28;20190;-88
2023/12/15 10:27:51;;;;;;;3.73;3.53;;;3.80;97.30;;;;;;4972423;28;20527;-87
2023/12/15 10:30:17;;;;;;;2.27;2.10;;;3.80;97.30;;;;;;4980972;28;20426;-88
2023/12/15 10:32:44;;;;;;;8.77;5.00;;;3.80;97.30;;;;;;4976800;28;20449;-88
2023/12/15 10:35:10;;;;;;;1.07;0.97;;;3.80;97.30;;;;;;4960395;28;20448;-88
2023/12/15 10:37:41;;;;;;;9.03;2.77;;;3.70;97.30;;;;;;4960573;28;20472;-88
2023/12/15 10:40:07;;;;;;;3.63;2.03;;;3.80;97.30;;;;;;4961164;28;20532;-88
2023/12/15 10:42:35;;;;;;;6.43;4.07;;;3.80;97.30;;;;;;4977921;28;20478;-88
2023/12/15 10:45:04;;;;;;;2.40;2.20;;;3.70;97.30;;;;;;4976154;28;20429;-88
2023/12/15 10:47:31;;;;;;;1.60;1.50;;;3.70;97.30;;;;;;4976202;28;20985;-88
2023/12/15 10:49:57;;;;;;;2.30;2.10;;;3.70;97.30;;;;;;4982866;28;21065;-88
2023/12/15 10:52:24;;;;;;;5.43;4.20;;;3.70;97.30;;;;;;4975341;28;20441;-87
2023/12/15 10:54:51;;;;;;;6.10;2.17;;;3.70;97.30;;;;;;4959757;28;20488;-88
2023/12/15 10:57:17;;;;;;;3.03;2.63;;;3.70;97.30;;;;;;4972125;28;20433;-87
2023/12/15 10:59:43;;;;;;;2.03;1.40;;;3.70;97.30;;;;;;4966289;28;20461;-88
2023/12/15 11:02:11;;;;;;;2.60;2.40;;;3.70;97.30;;;;;;4958254;28;20289;-88
2023/12/15 11:04:37;;;;;;;7.77;4.10;;;3.70;97.30;;;;;;4959780;28;20189;-88
2023/12/15 11:07:02;;;;;;;2.53;2.33;;;3.70;97.30;;;;;;4976202;28;20460;-88
2023/12/15 11:09:33;;;;;;;3.27;3.07;;;3.70;97.30;;;;;;4959645;28;20183;-88
2023/12/15 11:12:22;;;;;;;1.47;1.37;;;3.70;97.30;;;;;;4959494;28;20210;-88
2023/12/15 11:14:51;;;;;;;6.70;3.37;;;3.80;97.30;;;;;;4971406;28;20429;-87
2023/12/15 11:17:17;;;;;;;4.90;2.20;;;3.80;97.30;;;;;;4977075;28;20417;-87
2023/12/15 11:19:43;;;;;;;5.13;3.30;;;3.90;97.30;;;;;;4976716;28;20461;-88
2023/12/15 11:22:11;;;;;;;3.37;2.73;;;3.90;97.30;;;;;;4959485;28;20225;-88
2023/12/15 11:24:38;;;;;;;1.30;1.20;;;3.90;97.30;;;;;;4975197;28;20426;-88
2023/12/15 11:27:04;;;;;;;16.47;4.53;;;3.80;97.30;;;;;;4976812;28;20418;-88
2023/12/15 11:29:35;;;;;;;2.43;2.27;;;3.80;97.30;;;;;;4959150;28;20433;-87
2023/12/15 11:32:33;;;;;;;1.57;1.47;;;3.90;97.30;;;;;;4959430;28;20449;-88
2023/12/15 11:34:59;;;;;;;3.40;2.23;;;3.90;97.30;;;;;;4937544;28;20426;-88
2023/12/15 11:37:26;;;;;;;6.83;6.27;;;3.90;97.30;;;;;;4976347;28;20425;-88
2023/12/15 11:39:53;;;;;;;3.00;2.80;;;3.90;97.30;;;;;;4976094;28;20252;-88
2023/12/15 11:42:19;;;;;;;2.27;2.07;;;3.90;97.30;;;;;;4976647;28;20453;-88
2023/12/15 11:44:45;;;;;;;5.40;2.83;;;3.90;97.30;;;;;;4973801;28;20427;-88
2023/12/15 11:47:13;;;;;;;1.67;1.57;;;3.90;97.30;;;;;;4958505;28;20249;-88
2023/12/15 11:49:42;;;;;;;3.00;1.80;;;3.90;97.30;;;;;;4952240;28;20454;-88
2023/12/15 11:52:10;;;;;;;2.93;1.67;;;3.90;97.30;;;;;;4973352;28;20916;-86
2023/12/15 11:54:36;;;;;;;2.17;1.93;;;3.90;97.30;;;;;;4990398;28;20421;-88
2023/12/15 11:57:05;;;;;;;9.70;3.17;;;3.90;97.30;;;;;;4982169;28;20463;-87
2023/12/15 11:59:35;;;;;;;2.40;2.20;;;3.90;97.30;;;;;;4986826;28;20863;-88
2023/12/15 12:02:01;;;;;;;9.60;4.60;;;3.90;97.30;;;;;;4986485;28;20507;-88
2023/12/15 12:04:29;;;;;;;4.50;2.70;;;3.90;97.30;;;;;;4985610;28;20806;-88
2023/12/15 12:06:55;;;;;;;9.37;5.27;;;3.90;97.30;;;;;;4995646;28;20181;-84
2023/12/15 12:09:22;;;;;;;8.73;3.87;;;4.00;97.30;;;;;;4983471;28;21210;-87
2023/12/15 12:11:48;;;;;;;2.40;2.03;;;4.00;97.30;;;;;;4973582;28;20215;-87
2023/12/15 12:14:14;;;;;;;4.87;4.60;;;4.00;97.30;;;;;;4960498;28;20518;-88
2023/12/15 12:16:40;;;;;;;3.10;2.57;;;4.10;97.30;;;;;;4980168;28;20273;-87
2023/12/15 12:19:08;;;;;;;1.90;1.80;;;4.10;97.30;;;;;;4972121;28;20489;-87
2023/12/15 12:21:37;;;;;;;3.80;1.90;;;4.10;97.30;;;;;;4958527;28;20433;-87
2023/12/15 12:24:03;;;;;;;2.57;1.93;;;4.10;97.30;;;;;;4980602;28;20426;-87
2023/12/15 12:26:29;;;;;;;1.93;1.83;;;4.10;97.30;;;;;;4959775;28;20476;-87
2023/12/15 12:28:56;;;;;;;2.27;2.07;;;4.20;97.30;;;;;;4976251;28;20285;-87
2023/12/15 12:31:26;;;;;;;4.00;2.13;;;4.20;97.30;;;;;;4956499;28;20206;-84
2023/12/15 12:33:57;;;;;;;11.33;4.40;;;4.30;97.30;;;;;;4976661;28;20863;-86
2023/12/15 12:36:45;;;;;;;4.47;2.47;;;4.30;97.30;;;;;;4954814;28;20436;-87
2023/12/15 12:39:40;;;;;;;2.13;1.97;;;4.30;97.30;;;;;;4956811;28;20462;-87
2023/12/15 12:44:37;;;;;;;8.67;4.70;;;4.40;97.30;;;;;;4987018;28;20500;-65
2023/12/15 12:47:02;;;;;;;2.90;2.70;;;4.50;97.30;;;;;;4986061;28;20441;-65
2023/12/15 12:49:28;;;;;;;5.93;2.63;;;4.60;97.30;;;;;;4969050;28;20208;-66
2023/12/15 12:51:54;;;;;;;4.60;2.07;;;4.60;97.30;;;;;;4977475;28;20209;-67
2023/12/15 12:54:20;;;;;;;2.03;1.90;;;4.70;97.30;;;;;;4971748;28;20175;-66
2023/12/15 12:56:45;;;;;;;5.60;2.20;;;4.70;97.30;;;;;;4969503;28;20681;-66
2023/12/15 12:59:11;;;;;;;3.40;3.20;;;4.80;97.30;;;;;;4952500;28;20182;-66
2023/12/15 13:01:37;;;;;;;5.80;3.63;;;4.80;97.30;;;;;;4979103;28;20575;-66
2023/12/15 13:04:02;;;;;;;4.30;2.30;;;4.90;97.30;;;;;;4957163;28;20186;-66
2023/12/15 13:06:28;;;;;;;6.73;1.87;;;4.90;97.30;;;;;;4979340;28;20709;-66
2023/12/15 13:08:54;;;;;;;1.53;1.43;;;4.90;97.30;;;;;;4957126;28;20202;-66
2023/12/15 13:11:20;;;;;;;5.80;2.20;;;4.90;97.30;;;;;;4961894;28;20469;-66
2023/12/15 13:13:45;;;;;;;9.50;2.10;;;4.90;97.30;;;;;;4974346;28;20198;-66
2023/12/15 13:16:13;;;;;;;4.20;3.50;;;4.90;97.30;;;;;;4971252;28;20214;-64
2023/12/15 13:18:39;;;;;;;2.60;2.10;;;5.00;97.30;;;;;;4952978;28;20248;-65
2023/12/15 13:21:05;;;;;;;1.80;1.70;;;5.00;97.30;;;;;;4970943;28;20446;-65
2023/12/15 13:23:31;;;;;;;8.60;4.03;;;5.00;97.30;;;;;;4969987;28;20414;-65
2023/12/15 13:25:56;;;;;;;3.57;3.37;;;5.00;97.30;;;;;;4963941;28;20186;-65
2023/12/15 13:28:26;;;;;;;3.53;1.87;;;5.10;97.30;;;;;;4955898;28;20202;-64
2023/12/15 13:30:52;;;;;;;8.33;5.13;;;5.10;97.30;;;;;;4965372;28;20201;-64
2023/12/15 13:33:17;;;;;;;3.43;2.67;;;5.10;97.30;;;;;;4966102;28;20410;-65
2023/12/15 13:35:43;;;;;;;5.40;5.10;;;5.20;97.30;;;;;;4958029;28;20862;-65
2023/12/15 13:38:09;;;;;;;9.70;3.70;;;5.20;97.30;;;;;;4950294;28;20187;-65
2023/12/15 13:40:34;;;;;;;7.50;3.50;;;5.20;97.30;;;;;;4959485;28;20213;-65
2023/12/15 13:43:00;;;;;;;4.33;3.90;;;5.20;97.30;;;;;;4963200;28;20257;-65
2023/12/15 13:45:25;;;;;;;3.10;1.60;;;5.30;97.30;;;;;;4968571;28;20663;-65
2023/12/15 13:47:51;;;;;;;6.23;4.50;;;5.30;97.30;;;;;;4969760;28;20214;-64
2023/12/15 13:50:20;;;;;;;5.60;3.20;;;5.40;97.30;;;;;;4968658;28;20193;-65
2023/12/15 13:52:45;;;;;;;13.37;4.73;;;5.40;97.30;;;;;;4965005;28;20186;-66
2023/12/15 13:55:11;;;;;;;2.33;2.13;;;5.50;97.30;;;;;;4952808;28;20433;-65
2023/12/15 13:57:37;;;;;;;2.83;2.63;;;5.50;97.30;;;;;;4953879;28;20619;-65
2023/12/15 14:00:04;;;;;;;6.93;4.83;;;5.50;97.30;;;;;;4969679;28;20213;-65
2023/12/15 14:02:29;;;;;;;6.43;4.63;;;5.50;97.30;;;;;;4968027;28;20226;-65
2023/12/15 14:04:55;;;;;;;4.47;2.63;;;5.50;97.30;;;;;;4966274;28;20479;-65
2023/12/15 14:07:20;;;;;;;3.70;3.50;;;5.50;97.30;;;;;;4955563;28;20191;-65
2023/12/15 14:09:46;;;;;;;4.53;2.23;;;5.60;97.30;;;;;;4971693;28;20233;-66
2023/12/15 14:12:12;;;;;;;2.30;2.10;;;5.60;97.30;;;;;;4958230;28;20682;-65
2023/12/15 14:14:37;;;;;;;7.90;3.17;;;5.60;97.30;;;;;;4952730;28;20685;-65
2023/12/15 14:17:06;;;;;;;11.17;2.83;;;5.60;97.30;;;;;;4952676;28;20183;-64
2023/12/15 14:19:31;;;;;;;8.73;5.57;;;5.60;97.30;;;;;;4969670;28;20183;-65
2023/12/15 14:21:57;;;;;;;1.37;1.27;;;5.60;97.30;;;;;;4971757;28;20972;-64
2023/12/15 14:24:22;;;;;;;3.60;2.43;;;5.60;97.30;;;;;;4966653;28;20269;-67
2023/12/15 14:26:48;;;;;;;5.27;4.43;;;5.60;97.30;;;;;;4952550;28;20226;-65
2023/12/15 14:29:14;;;;;;;4.47;3.97;;;5.60;97.30;;;;;;4967317;28;20214;-65
2023/12/15 14:31:39;;;;;;;1.73;1.63;;;5.60;97.30;;;;;;4951381;28;20265;-65
2023/12/15 14:34:05;;;;;;;3.50;2.77;;;5.60;97.30;;;;;;4971502;28;20206;-65
2023/12/15 14:36:30;;;;;;;3.50;3.30;;;5.60;97.30;;;;;;4964547;28;20578;-64
2023/12/15 14:38:56;;;;;;;5.93;3.13;;;5.60;97.30;;;;;;4964581;28;20195;-65
2023/12/15 14:41:22;;;;;;;6.53;4.23;;;5.60;97.30;;;;;;4972406;28;20296;-66
2023/12/15 14:43:47;;;;;;;1.83;1.40;;;5.60;97.30;;;;;;4963793;28;20338;-65
2023/12/15 14:46:13;;;;;;;8.80;3.63;;;5.60;97.30;;;;;;4964555;28;20191;-66
2023/12/15 14:48:39;;;;;;;3.43;1.67;;;5.60;97.30;;;;;;4971293;28;20213;-65
2023/12/15 14:51:04;;;;;;;4.30;3.30;;;5.60;97.30;;;;;;4954088;28;20473;-66
2023/12/15 14:53:30;;;;;;;2.40;2.20;;;5.60;97.30;;;;;;4972360;28;20190;-66
2023/12/15 14:55:55;;;;;;;4.93;2.60;;;5.60;97.30;;;;;;4964443;28;20273;-66
2023/12/15 14:58:21;;;;;;;4.00;3.57;;;5.60;97.30;;;;;;4970606;28;20658;-66
2023/12/15 15:00:47;;;;;;;4.93;2.57;;;5.60;97.30;;;;;;4972636;28;20206;-67
2023/12/15 15:03:13;;;;;;;4.47;3.30;;;5.60;97.30;;;;;;4974006;28;20940;-65
2023/12/15 15:05:38;;;;;;;6.57;3.67;;;5.60;97.30;;;;;;4956251;28;20259;-65
2023/12/15 15:08:04;;;;;;;1.83;1.57;;;5.60;97.30;;;;;;4957730;28;20461;-66
2023/12/15 15:10:29;;;;;;;6.07;3.10;;;5.50;97.30;;;;;;4967211;28;20245;-66
2023/12/15 15:12:55;;;;;;;1.77;1.67;;;5.50;97.30;;;;;;4975178;28;20189;-65
2023/12/15 15:15:20;;;;;;;3.00;2.80;;;5.50;97.30;;;;;;4972182;28;20198;-68
2023/12/15 15:17:46;;;;;;;4.30;3.03;;;5.50;97.30;;;;;;4954690;28;20187;-64
2023/12/15 15:20:11;;;;;;;2.83;2.40;;;5.40;97.30;;;;;;4955091;28;20196;-65
2023/12/15 15:22:37;;;;;;;3.60;3.37;;;5.40;97.30;;;;;;4964142;28;20190;-66
2023/12/15 15:25:03;;;;;;;1.40;1.30;;;5.40;97.30;;;;;;4950237;28;20194;-66
2023/12/15 15:27:28;;;;;;;5.10;2.93;;;5.40;97.30;;;;;;4972083;28;20653;-65
2023/12/15 15:29:53;;;;;;;3.00;1.73;;;5.40;97.30;;;;;;4956281;28;20669;-65
2023/12/15 15:32:19;;;;;;;6.80;4.50;;;5.40;97.30;;;;;;4964756;28;20207;-65
2023/12/15 15:34:45;;;;;;;2.70;1.90;;;5.40;97.30;;;;;;4975651;28;20178;-65
2023/12/15 15:37:10;;;;;;;2.60;2.40;;;5.40;97.30;;;;;;4954469;28;20190;-65
2023/12/15 15:39:36;;;;;;;8.93;4.43;;;5.40;97.30;;;;;;4966817;28;20190;-65
2023/12/15 15:42:02;;;;;;;4.53;1.97;;;5.40;97.30;;;;;;4971655;28;20321;-66
2023/12/15 15:44:29;;;;;;;1.97;1.87;;;5.40;97.30;;;;;;4972635;28;20465;-65
2023/12/15 15:46:55;;;;;;;4.00;2.60;;;5.40;97.30;;;;;;4975555;28;20635;-65
2023/12/15 15:49:21;;;;;;;4.63;4.00;;;5.40;97.30;;;;;;4956966;28;20484;-65
2023/12/15 15:51:48;;;;;;;10.33;4.17;;;5.40;97.30;;;;;;4963409;28;20436;-65
2023/12/15 15:54:14;;;;;;;7.63;3.63;;;5.40;97.30;;;;;;4957972;28;20209;-65
2023/12/15 15:56:45;;;;;;;12.73;4.03;;;5.40;97.30;;;;;;4973304;28;20910;-65
2023/12/15 15:59:10;;;;;;;5.20;4.60;;;5.40;97.30;;;;;;4972626;28;20414;-67
2023/12/15 16:01:36;;;;;;;3.50;1.57;;;5.40;97.30;;;;;;4953717;28;20436;-66
2023/12/15 16:04:01;;;;;;;8.97;4.67;;;5.40;97.30;;;;;;4962413;28;20209;-65
2023/12/15 16:06:27;;;;;;;9.60;4.60;;;5.40;97.30;;;;;;4968689;28;20202;-65
2023/12/15 16:08:53;;;;;;;2.70;2.50;;;5.30;97.30;;;;;;4951658;28;20222;-66
2023/12/15 16:11:18;;;;;;;3.23;3.03;;;5.40;97.30;;;;;;4967770;28;20700;-65
2023/12/15 16:13:45;;;;;;;3.93;2.70;;;5.30;97.30;;;;;;4955269;28;20213;-66
2023/12/15 16:16:11;;;;;;;3.30;3.10;;;5.40;97.30;;;;;;4965370;28;20179;-66
2023/12/15 16:18:36;;;;;;;6.47;2.57;;;5.40;97.30;;;;;;4963238;28;20428;-66
2023/12/15 16:21:02;;;;;;;13.53;6.20;;;5.40;97.30;;;;;;4973488;28;20289;-65
2023/12/15 16:23:27;;;;;;;18.23;5.73;;;5.40;97.30;;;;;;4953688;28;20229;-66
2023/12/15 16:25:53;;;;;;;23.07;3.10;;;5.40;97.30;;;;;;4955464;28;20647;-66
2023/12/15 16:28:19;;;;;;;2.90;2.07;;;5.40;97.30;;;;;;4965065;28;20670;-65
2023/12/15 16:30:44;;;;;;;2.80;2.60;;;5.40;97.30;;;;;;4970853;28;20505;-66
2023/12/15 16:33:12;;;;;;;13.20;3.70;;;5.40;97.30;;;;;;4950485;28;20182;-66
2023/12/15 16:35:37;;;;;;;2.27;2.07;;;5.40;97.30;;;;;;4955213;28;20181;-65
2023/12/15 16:38:04;;;;;;;3.70;2.43;;;5.40;97.30;;;;;;4967089;28;20778;-66
2023/12/15 16:40:29;;;;;;;3.50;2.47;;;5.30;97.30;;;;;;4976727;28;20214;-65
2023/12/15 16:42:55;;;;;;;3.33;1.30;;;5.30;97.30;;;;;;4967251;28;20469;-66
2023/12/15 16:45:21;;;;;;;3.93;3.73;;;5.30;97.30;;;;;;4973445;28;20228;-66
2023/12/15 16:47:46;;;;;;;1.57;1.47;;;5.30;97.30;;;;;;4973013;28;20212;-66
2023/12/15 16:50:12;;;;;;;2.47;2.27;;;5.30;97.30;;;;;;4955714;28;20437;-66
2023/12/15 16:52:38;;;;;;;11.73;4.77;;;5.30;97.30;;;;;;4970719;28;20182;-66
2023/12/15 16:55:05;;;;;;;3.13;1.50;;;5.30;97.30;;;;;;4972896;28;20186;-66
2023/12/15 16:57:31;;;;;;;3.80;3.60;;;5.30;97.30;;;;;;4972719;28;20457;-65
2023/12/15 16:59:57;;;;;;;3.57;2.60;;;5.30;97.30;;;;;;4955591;28;20921;-66
2023/12/15 17:02:22;;;;;;;2.20;2.03;;;5.30;97.30;;;;;;4971497;28;20564;-66
2023/12/15 17:04:49;;;;;;;3.13;1.70;;;5.30;97.30;;;;;;4942975;28;20566;-65
2023/12/15 17:07:15;;;;;;;14.77;3.33;;;5.30;97.30;;;;;;4956651;28;20182;-65
2023/12/15 17:09:40;;;;;;;4.67;2.57;;;5.30;97.30;;;;;;4967369;28;20428;-66
2023/12/15 17:12:07;;;;;;;2.13;1.97;;;5.30;97.30;;;;;;4949644;28;20539;-66
2023/12/15 17:14:33;;;;;;;3.60;3.40;;;5.30;97.30;;;;;;4943534;28;20290;-65
2023/12/15 17:16:58;;;;;;;4.33;2.00;;;5.30;97.30;;;;;;4970218;28;20894;-65
2023/12/15 17:19:24;;;;;;;3.80;3.23;;;5.40;97.30;;;;;;4972297;28;20273;-66
2023/12/15 17:21:49;;;;;;;8.90;2.73;;;5.40;97.30;;;;;;4952394;28;20209;-66
2023/12/15 17:24:17;;;;;;;3.23;3.03;;;5.40;97.30;;;;;;4954954;28;20186;-66
2023/12/15 17:26:42;;;;;;;4.70;2.03;;;5.40;97.30;;;;;;4949174;28;20187;-66
2023/12/15 17:29:08;;;;;;;1.70;1.60;;;5.40;97.30;;;;;;4952365;28;20999;-67
2023/12/15 17:31:33;;;;;;;5.53;4.50;;;5.40;97.30;;;;;;4955074;28;20702;-67
2023/12/15 17:33:59;;;;;;;13.47;3.70;;;5.40;97.30;;;;;;4955251;28;20726;-67
2023/12/15 17:36:24;;;;;;;4.40;2.47;;;5.50;97.30;;;;;;4952502;28;20186;-67
2023/12/15 17:38:50;;;;;;;1.63;1.53;;;5.40;97.30;;;;;;4969777;28;20592;-68
2023/12/15 17:41:22;;;;;;;2.93;2.73;;;5.40;97.30;;;;;;4955284;28;20206;-69
2023/12/15 17:43:48;;;;;;;4.87;4.57;;;5.50;97.30;;;;;;4959441;28;20673;-67
2023/12/15 17:46:22;;;;;;;3.53;3.40;;;5.50;97.30;;;;;;4972990;28;20520;-66
2023/12/15 17:48:48;;;;;;;2.80;2.60;;;5.50;97.30;;;;;;4955880;28;20837;-66
2023/12/15 17:51:13;;;;;;;2.87;1.93;;;5.50;97.30;;;;;;4966979;28;20450;-65
2023/12/15 17:53:38;;;;;;;2.37;2.10;;;5.50;97.30;;;;;;4952467;28;20187;-66